Time;durP1;ratioP1;P1;durP2;ratioP2;P2;SDS_P1;SDS_P2;PMS_P1;PMS_P2;Temp;Humidity;BMP_temperature;BMP_pressure;BME280_temperature;BME280_humidity;BME280_pressure;Samples;Min_cycle;Max_cycle;Signal;HPM_P1;HPM_P2
2021/03/04 00:00:46;;;;;;;7.53;5.20;;;;;;;;;;5036846;28;20455;-55
2021/03/04 00:03:25;;;;;;;8.32;5.15;;;;;;;;;;5037236;28;20371;-55
2021/03/04 00:05:56;;;;;;;9.75;4.95;;;;;;;;;;5036613;28;20029;-56
2021/03/04 00:11:17;;;;;;;6.97;5.38;;;;;;;;;;5037364;28;20057;-56
2021/03/04 00:13:46;;;;;;;7.30;5.35;;;;;;;;;;5018795;28;20075;-56
2021/03/04 00:16:15;;;;;;;9.20;4.95;;;;;;;;;;5036453;28;20021;-55
2021/03/04 00:18:54;;;;;;;7.88;5.40;;;;;;;;;;5019186;28;20025;-54
2021/03/04 00:21:23;;;;;;;7.93;5.25;;;;;;;;;;5036525;28;20044;-56
2021/03/04 00:24:03;;;;;;;7.93;5.47;;;;;;;;;;5019359;28;20036;-55
2021/03/04 00:26:35;;;;;;;7.85;5.03;;;;;;;;;;5019214;28;20033;-56
2021/03/04 00:29:05;;;;;;;6.50;4.85;;;;;;;;;;5018205;28;20034;-56
2021/03/04 00:34:32;;;;;;;11.25;5.97;;;;;;;;;;5036374;28;20460;-56
2021/03/04 00:37:01;;;;;;;7.03;5.40;;;;;;;;;;5036673;28;20026;-55
2021/03/04 00:39:46;;;;;;;11.82;6.15;;;;;;;;;;5035670;28;20029;-56
2021/03/04 00:42:12;;;;;;;9.35;6.10;;;;;;;;;;5036377;28;20072;-55
2021/03/04 00:44:44;;;;;;;7.80;5.75;;;;;;;;;;5035548;28;20053;-56
2021/03/04 00:47:11;;;;;;;6.65;5.47;;;;;;;;;;5036412;28;20113;-55
2021/03/04 00:49:47;;;;;;;10.50;6.30;;;;;;;;;;5017814;28;20101;-55
2021/03/04 00:52:24;;;;;;;11.38;6.05;;;;;;;;;;5036503;28;20025;-55
2021/03/04 00:57:55;;;;;;;6.95;5.43;;;;;;;;;;5035771;28;20041;-56
2021/03/04 01:00:24;;;;;;;14.80;6.35;;;;;;;;;;5035603;28;20128;-56
2021/03/04 01:02:53;;;;;;;8.82;5.70;;;;;;;;;;5035935;28;20041;-56
2021/03/04 01:05:25;;;;;;;9.30;6.68;;;;;;;;;;5035285;28;20060;-55
2021/03/04 01:07:54;;;;;;;8.80;5.75;;;;;;;;;;5017328;28;20087;-54
2021/03/04 01:10:53;;;;;;;6.90;5.28;;;;;;;;;;5035112;28;20032;-56
2021/03/04 01:13:23;;;;;;;7.63;6.45;;;;;;;;;;4981543;28;20033;-53
2021/03/04 01:15:55;;;;;;;11.23;6.00;;;;;;;;;;5035724;28;20038;-56
2021/03/04 01:18:27;;;;;;;10.82;7.00;;;;;;;;;;5035300;28;20032;-53
2021/03/04 01:20:57;;;;;;;8.98;6.32;;;;;;;;;;5035659;28;20091;-56
2021/03/04 01:23:44;;;;;;;11.55;6.97;;;;;;;;;;5035736;28;20030;-56
2021/03/04 01:26:19;;;;;;;12.30;6.15;;;;;;;;;;5034769;28;20087;-55
2021/03/04 01:28:45;;;;;;;11.65;6.88;;;;;;;;;;5035748;28;20407;-55
2021/03/04 01:31:20;;;;;;;7.50;6.07;;;;;;;;;;5035082;28;20083;-56
2021/03/04 01:34:01;;;;;;;11.43;5.75;;;;;;;;;;5017108;28;20056;-56
2021/03/04 01:36:43;;;;;;;9.30;6.75;;;;;;;;;;5034822;28;20026;-54
2021/03/04 01:39:25;;;;;;;8.77;6.03;;;;;;;;;;5017074;28;20128;-56
2021/03/04 01:41:58;;;;;;;7.93;5.38;;;;;;;;;;5034621;28;20025;-54
2021/03/04 01:47:23;;;;;;;7.97;6.25;;;;;;;;;;5035232;28;20040;-58
2021/03/04 01:49:58;;;;;;;8.60;5.38;;;;;;;;;;5016972;28;20103;-58
2021/03/04 01:52:25;;;;;;;6.68;5.53;;;;;;;;;;5034035;28;20136;-58
2021/03/04 01:54:57;;;;;;;7.00;5.47;;;;;;;;;;5029621;28;20030;-58
2021/03/04 01:57:23;;;;;;;10.30;6.47;;;;;;;;;;5034838;28;20017;-55
2021/03/04 01:59:53;;;;;;;10.05;5.80;;;;;;;;;;5034623;28;20120;-55
2021/03/04 02:02:37;;;;;;;12.90;6.07;;;;;;;;;;5034740;28;20479;-55
2021/03/04 02:08:12;;;;;;;13.93;6.88;;;;;;;;;;5034706;28;20072;-55
2021/03/04 02:11:10;;;;;;;10.23;6.22;;;;;;;;;;5035043;28;20026;-55
2021/03/04 02:13:59;;;;;;;7.35;4.72;;;;;;;;;;5034092;28;20101;-54
2021/03/04 02:16:44;;;;;;;8.75;6.07;;;;;;;;;;5034876;28;20026;-54
2021/03/04 02:19:32;;;;;;;10.00;5.65;;;;;;;;;;5031881;28;20096;-55
2021/03/04 02:22:20;;;;;;;8.40;5.65;;;;;;;;;;5033388;28;20057;-56
2021/03/04 02:25:11;;;;;;;13.80;7.00;;;;;;;;;;5016750;28;20049;-54
2021/03/04 02:27:46;;;;;;;;;;;;;;;;;;5016787;28;20329;-57
2021/03/04 02:30:16;;;;;;;11.70;6.38;;;;;;;;;;5016941;28;19912;-59
2021/03/04 02:32:42;;;;;;;;;;;;;;;;;;5017066;28;20049;-58
2021/03/04 02:35:30;;;;;;;;;;;;;;;;;;;;;
2021/03/04 02:38:13;;;;;;;8.48;5.55;;;;;;;;;;4973352;28;20041;-55
2021/03/04 02:40:51;;;;;;;9.50;6.78;;;;;;;;;;4956225;28;20042;-54
2021/03/04 02:43:27;;;;;;;9.40;6.38;;;;;;;;;;4973050;28;20039;-56
2021/03/04 02:45:56;;;;;;;10.13;6.55;;;;;;;;;;4970610;28;20428;-55
2021/03/04 02:48:36;;;;;;;8.93;6.32;;;;;;;;;;4956707;28;20159;-56
2021/03/04 02:51:14;;;;;;;10.25;6.55;;;;;;;;;;4956450;28;20034;-56
2021/03/04 02:53:52;;;;;;;19.02;6.63;;;;;;;;;;4972635;28;20038;-55
2021/03/04 02:56:22;;;;;;;10.50;6.00;;;;;;;;;;4973456;28;20428;-55
2021/03/04 02:59:02;;;;;;;;;;;;;;;;;;;;;
2021/03/04 03:01:37;;;;;;;9.07;6.57;;;;;;;;;;4970981;28;20038;-55
2021/03/04 03:04:22;;;;;;;7.63;5.65;;;;;;;;;;4973246;28;20338;-53
2021/03/04 03:07:14;;;;;;;14.27;6.35;;;;;;;;;;4971893;28;20050;-56
2021/03/04 03:09:48;;;;;;;6.05;5.45;;;;;;;;;;4967538;28;20147;-55
2021/03/04 03:12:21;;;;;;;7.95;6.00;;;;;;;;;;4972951;28;20031;-54
2021/03/04 03:14:59;;;;;;;6.60;5.28;;;;;;;;;;4997255;28;20038;-55
2021/03/04 03:17:31;;;;;;;12.07;6.43;;;;;;;;;;5012744;28;20033;-55
2021/03/04 03:20:17;;;;;;;10.45;7.07;;;;;;;;;;5033547;28;20109;-54
2021/03/04 03:23:06;;;;;;;;;;;;;;;;;;;;;
2021/03/04 03:25:41;;;;;;;12.30;6.22;;;;;;;;;;5032917;28;20479;-55
2021/03/04 03:28:35;;;;;;;8.35;6.03;;;;;;;;;;5033598;28;20096;-56
2021/03/04 03:31:04;;;;;;;7.35;5.88;;;;;;;;;;5030858;28;20046;-56
2021/03/04 03:33:47;;;;;;;7.53;5.55;;;;;;;;;;5036203;28;20097;-56
2021/03/04 03:36:16;;;;;;;7.70;6.07;;;;;;;;;;5037407;28;20106;-56
2021/03/04 03:38:49;;;;;;;11.63;6.68;;;;;;;;;;5037327;28;20057;-54
2021/03/04 03:41:21;;;;;;;8.23;5.85;;;;;;;;;;5037500;28;20037;-54
2021/03/04 03:43:50;;;;;;;13.63;7.05;;;;;;;;;;5019277;28;20383;-55
2021/03/04 03:46:25;;;;;;;9.68;5.90;;;;;;;;;;5037510;28;20034;-56
2021/03/04 03:49:01;;;;;;;9.48;6.15;;;;;;;;;;5036715;28;20096;-54
2021/03/04 03:51:43;;;;;;;7.90;6.32;;;;;;;;;;5036776;28;20124;-55
2021/03/04 03:54:21;;;;;;;7.97;5.43;;;;;;;;;;5037312;28;20029;-54
2021/03/04 03:56:55;;;;;;;8.15;6.13;;;;;;;;;;5036956;28;20026;-55
2021/03/04 03:59:35;;;;;;;;;;;;;;;;;;;;;
2021/03/04 04:02:25;;;;;;;7.55;5.13;;;;;;;;;;5017890;28;20045;-56
2021/03/04 04:04:57;;;;;;;9.10;5.85;;;;;;;;;;5036550;28;20080;-55
2021/03/04 04:07:30;;;;;;;8.10;5.38;;;;;;;;;;5037367;28;20037;-56
2021/03/04 04:10:04;;;;;;;8.95;6.05;;;;;;;;;;5037035;28;20026;-56
2021/03/04 04:12:35;;;;;;;11.32;6.35;;;;;;;;;;5036386;28;20066;-56
2021/03/04 04:18:05;;;;;;;7.47;6.03;;;;;;;;;;5036455;28;20386;-55
2021/03/04 04:23:29;;;;;;;8.77;6.30;;;;;;;;;;5036799;28;20042;-55
2021/03/04 04:26:09;;;;;;;10.55;6.85;;;;;;;;;;5037354;28;20356;-56
2021/03/04 04:28:44;;;;;;;;;;;;;;;;;;5035310;28;20040;-56
2021/03/04 04:31:24;;;;;;;9.93;6.22;;;;;;;;;;5036818;28;19912;-56
2021/03/04 04:33:56;;;;;;;7.20;6.13;;;;;;;;;;5036085;28;20064;-56
2021/03/04 04:36:47;;;;;;;9.80;5.97;;;;;;;;;;5018198;28;20443;-56
2021/03/04 04:39:26;;;;;;;;;;;;;;;;;;;;;
2021/03/04 04:41:52;;;;;;;9.27;5.43;;;;;;;;;;5033446;28;19913;-54
2021/03/04 04:44:49;;;;;;;10.10;6.32;;;;;;;;;;5035480;28;20050;-55
2021/03/04 04:47:22;;;;;;;9.27;5.85;;;;;;;;;;5035034;28;20379;-55
2021/03/04 04:50:00;;;;;;;9.07;6.93;;;;;;;;;;5036163;28;20025;-56
2021/03/04 04:52:34;;;;;;;6.95;5.97;;;;;;;;;;5036683;28;20404;-55
2021/03/04 04:58:06;;;;;;;10.70;6.30;;;;;;;;;;5032522;28;20080;-56
2021/03/04 05:00:38;;;;;;;9.23;6.00;;;;;;;;;;5034854;28;20037;-55
2021/03/04 05:06:02;;;;;;;7.82;5.88;;;;;;;;;;5021427;28;20385;-56
2021/03/04 05:08:35;;;;;;;7.80;6.05;;;;;;;;;;5035725;28;20018;-56
2021/03/04 05:13:56;;;;;;;10.13;5.57;;;;;;;;;;5035607;28;20044;-56
2021/03/04 05:16:41;;;;;;;11.68;6.20;;;;;;;;;;5035390;28;20387;-52
2021/03/04 05:22:14;;;;;;;13.23;5.93;;;;;;;;;;5035161;28;20041;-56
2021/03/04 05:24:43;;;;;;;8.18;5.57;;;;;;;;;;5018575;28;20076;-53
2021/03/04 05:27:15;;;;;;;9.10;5.95;;;;;;;;;;5035671;28;20029;-55
2021/03/04 05:29:53;;;;;;;6.90;4.95;;;;;;;;;;5035331;28;20030;-56
2021/03/04 05:32:29;;;;;;;10.27;7.53;;;;;;;;;;5035387;28;20057;-56
2021/03/04 05:35:13;;;;;;;10.07;5.63;;;;;;;;;;5034625;28;20375;-56
2021/03/04 05:37:52;;;;;;;8.45;5.78;;;;;;;;;;5018499;28;20113;-56
2021/03/04 05:40:32;;;;;;;12.65;7.28;;;;;;;;;;5034967;28;20029;-55
2021/03/04 05:43:24;;;;;;;7.43;6.00;;;;;;;;;;5035656;28;20403;-54
2021/03/04 05:46:00;;;;;;;11.40;6.53;;;;;;;;;;5034310;28;20075;-56
2021/03/04 05:48:32;;;;;;;11.20;6.15;;;;;;;;;;5035040;28;20022;-54
2021/03/04 05:51:02;;;;;;;10.75;6.38;;;;;;;;;;5016801;28;20029;-56
2021/03/04 05:53:39;;;;;;;7.70;6.67;;;;;;;;;;5017231;28;20029;-55
2021/03/04 05:56:12;;;;;;;9.73;5.30;;;;;;;;;;5034411;28;20253;-56
2021/03/04 06:01:51;;;;;;;12.60;6.57;;;;;;;;;;5034803;28;20046;-54
2021/03/04 06:04:23;;;;;;;11.95;5.93;;;;;;;;;;5033858;28;20083;-56
2021/03/04 06:06:52;;;;;;;7.43;5.55;;;;;;;;;;5034263;28;20025;-55
2021/03/04 06:09:27;;;;;;;7.85;5.55;;;;;;;;;;5012568;28;20037;-56
2021/03/04 06:11:53;;;;;;;9.05;6.63;;;;;;;;;;5034873;28;20033;-55
2021/03/04 06:14:35;;;;;;;;;;;;;;;;;;;;;
2021/03/04 06:17:20;;;;;;;11.60;6.47;;;;;;;;;;5022765;28;20365;-56
2021/03/04 06:20:01;;;;;;;9.93;5.55;;;;;;;;;;5034504;28;20033;-55
2021/03/04 06:22:45;;;;;;;6.82;5.68;;;;;;;;;;5016722;28;20033;-56
2021/03/04 06:25:24;;;;;;;13.98;5.82;;;;;;;;;;5032522;28;20120;-52
2021/03/04 06:27:53;;;;;;;7.57;6.80;;;;;;;;;;5033994;28;20463;-56
2021/03/04 06:30:33;;;;;;;6.88;5.60;;;;;;;;;;5034548;28;20039;-55
2021/03/04 06:33:05;;;;;;;11.07;6.38;;;;;;;;;;5033651;28;20034;-56
2021/03/04 06:35:46;;;;;;;8.45;5.82;;;;;;;;;;5017223;28;20018;-56
2021/03/04 06:41:32;;;;;;;14.25;7.15;;;;;;;;;;5033619;28;20045;-55
2021/03/04 06:44:27;;;;;;;10.45;7.20;;;;;;;;;;5017176;28;20053;-56
2021/03/04 06:46:53;;;;;;;11.05;6.55;;;;;;;;;;5028886;28;20437;-56
2021/03/04 06:49:43;;;;;;;8.75;6.55;;;;;;;;;;5034509;28;20032;-56
2021/03/04 06:52:41;;;;;;;9.35;6.00;;;;;;;;;;5017207;28;20080;-55
2021/03/04 06:55:13;;;;;;;8.27;6.57;;;;;;;;;;5033756;28;20426;-56
2021/03/04 06:57:40;;;;;;;12.95;7.45;;;;;;;;;;5034296;28;20021;-56
2021/03/04 07:00:20;;;;;;;;;;;;;;;;;;;;;
2021/03/04 07:02:58;;;;;;;10.65;6.75;;;;;;;;;;5030569;28;20042;-55
2021/03/04 07:05:38;;;;;;;9.85;6.68;;;;;;;;;;5028782;28;20056;-55
2021/03/04 07:08:24;;;;;;;9.13;6.63;;;;;;;;;;5018138;28;20029;-56
2021/03/04 07:10:53;;;;;;;12.63;6.55;;;;;;;;;;5020757;28;20022;-56
2021/03/04 07:13:40;;;;;;;9.23;6.82;;;;;;;;;;5034475;28;20033;-54
2021/03/04 07:16:09;;;;;;;9.77;6.30;;;;;;;;;;5035060;28;20124;-53
2021/03/04 07:18:57;;;;;;;8.93;6.97;;;;;;;;;;5038137;28;20069;-56
2021/03/04 07:21:34;;;;;;;9.05;6.10;;;;;;;;;;5037255;28;20461;-55
2021/03/04 07:24:09;;;;;;;8.93;6.55;;;;;;;;;;5021350;28;20032;-53
2021/03/04 07:27:01;;;;;;;21.98;7.68;;;;;;;;;;5037421;28;20072;-54
2021/03/04 07:29:39;;;;;;;14.15;7.20;;;;;;;;;;5037758;28;20025;-55
2021/03/04 07:32:17;;;;;;;28.50;8.50;;;;;;;;;;5019707;28;20049;-56
2021/03/04 07:37:38;;;;;;;8.15;6.35;;;;;;;;;;5017351;28;20539;-56
2021/03/04 07:40:07;;;;;;;9.55;6.55;;;;;;;;;;5037394;28;20037;-55
2021/03/04 07:42:54;;;;;;;9.38;6.32;;;;;;;;;;5037495;28;20033;-55
2021/03/04 07:45:28;;;;;;;12.00;7.15;;;;;;;;;;5036289;28;20387;-56
2021/03/04 07:48:01;;;;;;;11.70;6.45;;;;;;;;;;5037962;28;20029;-56
2021/03/04 07:50:42;;;;;;;10.20;6.53;;;;;;;;;;5037023;28;20357;-55
2021/03/04 07:53:08;;;;;;;7.03;5.97;;;;;;;;;;5037390;28;20042;-55
2021/03/04 07:58:46;;;;;;;9.93;6.03;;;;;;;;;;5033239;28;20061;-54
2021/03/04 08:01:13;;;;;;;8.45;6.75;;;;;;;;;;5036291;28;20124;-54
2021/03/04 08:03:48;;;;;;;14.73;7.18;;;;;;;;;;5037168;28;20125;-56
2021/03/04 08:06:29;;;;;;;7.93;5.78;;;;;;;;;;5036495;28;20025;-55
2021/03/04 08:09:18;;;;;;;9.77;6.53;;;;;;;;;;5035981;28;20057;-55
2021/03/04 08:11:53;;;;;;;7.80;6.18;;;;;;;;;;5017697;28;20422;-55
2021/03/04 08:14:26;;;;;;;14.35;6.53;;;;;;;;;;5019234;28;20487;-56
2021/03/04 08:17:05;;;;;;;;;;;;;;;;;;;;;
2021/03/04 08:19:45;;;;;;;9.23;6.63;;;;;;;;;;5014703;28;20038;-56
2021/03/04 08:22:25;;;;;;;9.30;6.53;;;;;;;;;;5037468;28;20052;-55
2021/03/04 08:24:54;;;;;;;10.47;7.03;;;;;;;;;;5018632;28;20034;-57
2021/03/04 08:27:37;;;;;;;9.75;5.53;;;;;;;;;;5019419;28;20400;-56
2021/03/04 08:30:13;;;;;;;12.35;6.05;;;;;;;;;;5037095;28;20025;-56
2021/03/04 08:32:45;;;;;;;11.57;6.32;;;;;;;;;;5036468;28;20112;-56
2021/03/04 08:35:32;;;;;;;9.93;5.32;;;;;;;;;;5034510;28;20468;-55
2021/03/04 08:38:01;;;;;;;7.95;5.60;;;;;;;;;;5019892;28;20033;-57
2021/03/04 08:40:44;;;;;;;8.38;5.03;;;;;;;;;;5000087;28;20088;-56
2021/03/04 08:43:42;;;;;;;10.40;5.47;;;;;;;;;;5034575;28;20335;-56
2021/03/04 08:46:19;;;;;;;7.85;5.70;;;;;;;;;;5016673;28;20056;-57
2021/03/04 08:48:48;;;;;;;6.97;5.03;;;;;;;;;;5036153;28;20121;-54
2021/03/04 08:51:41;;;;;;;8.40;5.13;;;;;;;;;;5035750;28;20422;-56
2021/03/04 08:54:27;;;;;;;9.95;4.57;;;;;;;;;;5014055;28;20501;-55
2021/03/04 08:57:08;;;;;;;5.72;3.88;;;;;;;;;;5035800;28;20061;-55
2021/03/04 09:02:38;;;;;;;7.75;4.07;;;;;;;;;;5026547;28;20379;-54
2021/03/04 09:05:27;;;;;;;7.38;4.30;;;;;;;;;;5035852;28;20041;-56
2021/03/04 09:07:59;;;;;;;6.50;4.47;;;;;;;;;;5034183;28;20088;-55
2021/03/04 09:10:41;;;;;;;4.10;3.47;;;;;;;;;;5017938;28;20072;-57
2021/03/04 09:13:15;;;;;;;8.23;5.03;;;;;;;;;;5034339;28;20045;-56
2021/03/04 09:15:55;;;;;;;8.27;5.20;;;;;;;;;;5017616;28;20018;-56
2021/03/04 09:18:25;;;;;;;8.67;5.70;;;;;;;;;;5034672;28;20072;-56
2021/03/04 09:21:02;;;;;;;10.85;4.90;;;;;;;;;;5017498;28;20084;-56
2021/03/04 09:23:41;;;;;;;8.45;4.40;;;;;;;;;;5035584;28;20029;-55
2021/03/04 09:26:17;;;;;;;7.53;4.45;;;;;;;;;;5034884;28;20029;-56
2021/03/04 09:28:46;;;;;;;9.93;5.38;;;;;;;;;;5017703;28;20112;-56
2021/03/04 09:31:27;;;;;;;8.60;4.07;;;;;;;;;;5034479;28;20057;-55
2021/03/04 09:34:03;;;;;;;7.65;4.72;;;;;;;;;;5035171;28;20029;-56
2021/03/04 09:36:32;;;;;;;13.95;4.13;;;;;;;;;;5001892;28;20033;-56
2021/03/04 09:39:11;;;;;;;6.35;4.07;;;;;;;;;;5000172;28;20037;-57
2021/03/04 09:41:42;;;;;;;6.13;4.10;;;;;;;;;;5034673;28;20037;-56
2021/03/04 09:44:17;;;;;;;7.93;4.70;;;;;;;;;;5034713;28;20065;-57
2021/03/04 09:46:43;;;;;;;7.13;4.47;;;;;;;;;;5034326;28;20061;-57
2021/03/04 09:49:20;;;;;;;4.35;3.50;;;;;;;;;;5034576;28;20030;-56
2021/03/04 09:51:51;;;;;;;11.20;4.97;;;;;;;;;;5034473;28;20116;-56
2021/03/04 09:54:25;;;;;;;11.07;4.93;;;;;;;;;;5034201;28;20037;-53
2021/03/04 09:57:10;;;;;;;7.75;4.85;;;;;;;;;;5017427;28;20025;-56
2021/03/04 09:59:45;;;;;;;11.10;6.03;;;;;;;;;;5034153;28;20022;-56
2021/03/04 10:02:31;;;;;;;9.07;5.32;;;;;;;;;;5034379;28;20105;-56
2021/03/04 10:05:00;;;;;;;9.88;4.15;;;;;;;;;;5016776;28;20022;-56
2021/03/04 10:07:31;;;;;;;12.13;4.45;;;;;;;;;;5034268;28;20021;-56
2021/03/04 10:10:01;;;;;;;8.00;5.05;;;;;;;;;;5017412;28;20034;-57
2021/03/04 10:12:27;;;;;;;11.68;5.15;;;;;;;;;;5034774;28;20053;-55
2021/03/04 10:14:54;;;;;;;15.85;4.28;;;;;;;;;;5033707;28;20037;-54
2021/03/04 10:17:29;;;;;;;6.30;4.10;;;;;;;;;;5033895;28;20026;-57
2021/03/04 10:19:55;;;;;;;8.40;5.60;;;;;;;;;;5016499;28;20465;-57
2021/03/04 10:22:27;;;;;;;7.90;5.32;;;;;;;;;;5034618;28;20129;-57
2021/03/04 10:24:53;;;;;;;8.18;5.45;;;;;;;;;;5034130;28;20025;-57
2021/03/04 10:27:25;;;;;;;13.20;6.00;;;;;;;;;;5033575;28;20034;-57
2021/03/04 10:29:58;;;;;;;17.40;4.93;;;;;;;;;;5033696;28;20531;-56
2021/03/04 10:32:27;;;;;;;10.80;5.22;;;;;;;;;;5015073;28;20442;-57
2021/03/04 10:35:04;;;;;;;6.70;4.72;;;;;;;;;;5033816;28;20533;-56
2021/03/04 10:37:32;;;;;;;9.10;5.03;;;;;;;;;;5034215;28;20032;-56
2021/03/04 10:40:07;;;;;;;15.05;6.28;;;;;;;;;;5033845;28;20041;-54
2021/03/04 10:42:36;;;;;;;15.35;6.63;;;;;;;;;;5033152;28;20025;-57
2021/03/04 10:45:05;;;;;;;7.47;5.28;;;;;;;;;;5015772;28;20035;-57
2021/03/04 10:47:34;;;;;;;7.80;5.35;;;;;;;;;;5033428;28;20056;-55
2021/03/04 10:50:03;;;;;;;9.18;5.60;;;;;;;;;;5033554;28;20028;-57
2021/03/04 10:52:36;;;;;;;9.10;5.47;;;;;;;;;;5034345;28;20026;-57
2021/03/04 10:55:03;;;;;;;13.77;6.03;;;;;;;;;;5015484;28;20112;-54
2021/03/04 10:57:35;;;;;;;6.65;4.45;;;;;;;;;;5015487;28;20395;-55
2021/03/04 11:00:13;;;;;;;10.95;4.63;;;;;;;;;;5033438;28;20043;-57
2021/03/04 11:02:44;;;;;;;8.65;5.70;;;;;;;;;;5033522;28;20456;-57
2021/03/04 11:05:11;;;;;;;7.60;5.20;;;;;;;;;;5029847;28;20034;-57
2021/03/04 11:07:39;;;;;;;6.38;5.05;;;;;;;;;;5033240;28;20522;-56
2021/03/04 11:10:06;;;;;;;6.90;5.32;;;;;;;;;;5033584;28;20050;-56
2021/03/04 11:12:35;;;;;;;8.70;5.80;;;;;;;;;;5033241;28;20026;-54
2021/03/04 11:15:04;;;;;;;10.88;5.95;;;;;;;;;;5015617;28;20052;-56
2021/03/04 11:17:33;;;;;;;8.35;5.03;;;;;;;;;;5033862;28;20329;-57
2021/03/04 11:20:04;;;;;;;9.43;5.50;;;;;;;;;;5033605;28;20451;-57
2021/03/04 11:22:30;;;;;;;8.32;4.63;;;;;;;;;;5033558;28;20109;-55
2021/03/04 11:24:57;;;;;;;7.95;4.35;;;;;;;;;;5033650;28;20104;-56
2021/03/04 11:27:23;;;;;;;13.07;6.07;;;;;;;;;;5033276;28;20371;-55
2021/03/04 11:29:49;;;;;;;12.10;6.00;;;;;;;;;;5032331;28;20034;-55
2021/03/04 11:32:17;;;;;;;10.48;6.07;;;;;;;;;;5033721;28;20038;-57
2021/03/04 11:34:50;;;;;;;7.30;5.65;;;;;;;;;;4999100;28;20472;-56
2021/03/04 11:37:16;;;;;;;13.60;6.90;;;;;;;;;;5033177;28;20036;-56
2021/03/04 11:39:45;;;;;;;13.95;6.63;;;;;;;;;;5033398;28;20590;-57
2021/03/04 11:42:11;;;;;;;6.90;5.50;;;;;;;;;;5033239;28;20041;-57
2021/03/04 11:44:40;;;;;;;6.82;4.80;;;;;;;;;;5014946;28;20030;-56
2021/03/04 11:47:09;;;;;;;9.35;5.82;;;;;;;;;;5032879;28;20072;-57
2021/03/04 11:49:47;;;;;;;17.42;6.40;;;;;;;;;;5016222;28;20026;-56
2021/03/04 11:52:14;;;;;;;12.02;6.75;;;;;;;;;;5016064;28;20026;-57
2021/03/04 11:54:40;;;;;;;15.73;5.97;;;;;;;;;;5035896;28;20034;-57
2021/03/04 11:57:13;;;;;;;10.82;5.82;;;;;;;;;;5018820;28;20120;-57
2021/03/04 11:59:39;;;;;;;12.20;5.95;;;;;;;;;;5036633;28;20029;-57
2021/03/04 12:02:08;;;;;;;9.35;5.90;;;;;;;;;;5037271;28;20112;-57
2021/03/04 12:04:34;;;;;;;10.02;5.90;;;;;;;;;;5036742;28;20025;-57
2021/03/04 12:07:00;;;;;;;11.18;6.97;;;;;;;;;;5037161;28;20041;-56
2021/03/04 12:09:26;;;;;;;10.88;5.95;;;;;;;;;;5036206;28;20017;-55
2021/03/04 12:11:54;;;;;;;8.77;5.50;;;;;;;;;;5036670;28;20080;-58
2021/03/04 12:14:23;;;;;;;9.07;5.20;;;;;;;;;;5036514;28;20060;-57
2021/03/04 12:16:52;;;;;;;17.08;6.25;;;;;;;;;;5035515;28;20422;-57
2021/03/04 12:19:19;;;;;;;10.35;6.35;;;;;;;;;;5036390;28;20113;-58
2021/03/04 12:21:45;;;;;;;15.20;6.50;;;;;;;;;;5018111;28;20048;-54
2021/03/04 12:24:14;;;;;;;19.48;7.15;;;;;;;;;;5036313;28;20113;-57
2021/03/04 12:26:40;;;;;;;14.05;6.40;;;;;;;;;;5035219;28;20075;-56
2021/03/04 12:29:09;;;;;;;14.73;6.25;;;;;;;;;;5036202;28;20099;-57
2021/03/04 12:31:36;;;;;;;10.20;5.57;;;;;;;;;;5036144;28;20149;-57
2021/03/04 12:34:03;;;;;;;11.70;5.95;;;;;;;;;;5035987;28;20056;-58
2021/03/04 12:36:29;;;;;;;25.33;7.65;;;;;;;;;;5035986;28;20030;-58
2021/03/04 12:38:55;;;;;;;8.13;5.57;;;;;;;;;;5018398;28;20025;-57
2021/03/04 12:41:21;;;;;;;8.18;5.20;;;;;;;;;;5035763;28;20044;-57
2021/03/04 12:43:50;;;;;;;7.85;5.22;;;;;;;;;;5018156;28;20062;-57
2021/03/04 12:46:16;;;;;;;13.55;5.55;;;;;;;;;;5018198;28;20041;-58
2021/03/04 12:48:42;;;;;;;8.15;5.22;;;;;;;;;;5001623;28;20383;-57
2021/03/04 12:51:08;;;;;;;7.75;4.45;;;;;;;;;;5018573;28;20493;-57
2021/03/04 12:53:34;;;;;;;11.65;5.85;;;;;;;;;;5035719;28;20076;-57
2021/03/04 12:56:04;;;;;;;10.18;4.45;;;;;;;;;;5018387;28;20087;-57
2021/03/04 12:58:30;;;;;;;8.15;4.50;;;;;;;;;;5035779;28;20041;-57
2021/03/04 13:00:56;;;;;;;8.43;5.53;;;;;;;;;;5035516;28;20025;-57
2021/03/04 13:03:22;;;;;;;8.57;5.18;;;;;;;;;;5035368;28;20083;-58
2021/03/04 13:05:48;;;;;;;18.58;5.38;;;;;;;;;;5035501;28;20112;-57
2021/03/04 13:08:14;;;;;;;7.93;5.22;;;;;;;;;;5035232;28;20112;-57
2021/03/04 13:10:40;;;;;;;12.13;5.88;;;;;;;;;;5017642;28;20479;-57
2021/03/04 13:13:06;;;;;;;7.57;4.95;;;;;;;;;;5036203;28;20033;-57
2021/03/04 13:15:32;;;;;;;7.32;5.35;;;;;;;;;;5035149;28;20025;-56
2021/03/04 13:17:58;;;;;;;5.82;5.07;;;;;;;;;;5035347;28;20068;-57
2021/03/04 13:20:27;;;;;;;8.30;5.07;;;;;;;;;;5017127;28;20045;-57
2021/03/04 13:22:56;;;;;;;9.10;5.28;;;;;;;;;;5035022;28;20490;-57
2021/03/04 13:25:26;;;;;;;14.50;6.60;;;;;;;;;;5017416;28;20079;-55
2021/03/04 13:27:52;;;;;;;10.00;5.30;;;;;;;;;;5017155;28;20462;-57
2021/03/04 13:30:18;;;;;;;6.47;4.57;;;;;;;;;;5035148;28;20029;-57
2021/03/04 13:32:47;;;;;;;9.82;5.25;;;;;;;;;;5035660;28;20116;-57
2021/03/04 13:35:13;;;;;;;10.73;5.97;;;;;;;;;;5018210;28;20030;-56
2021/03/04 13:37:39;;;;;;;8.15;5.65;;;;;;;;;;5034951;28;20138;-55
2021/03/04 13:40:09;;;;;;;10.68;5.63;;;;;;;;;;5034760;28;20100;-58
2021/03/04 13:42:35;;;;;;;7.65;5.03;;;;;;;;;;5035076;28;20037;-57
2021/03/04 13:45:01;;;;;;;11.05;6.18;;;;;;;;;;5034857;28;20087;-58
2021/03/04 13:47:30;;;;;;;11.73;6.18;;;;;;;;;;5034242;28;20511;-58
2021/03/04 13:49:56;;;;;;;6.65;5.00;;;;;;;;;;5034702;28;20153;-57
2021/03/04 13:52:22;;;;;;;12.60;5.90;;;;;;;;;;5016649;28;20025;-57
2021/03/04 13:54:48;;;;;;;8.38;4.90;;;;;;;;;;5034879;28;20518;-58
2021/03/04 13:57:16;;;;;;;11.23;4.82;;;;;;;;;;5016622;28;20160;-57
2021/03/04 13:59:47;;;;;;;14.52;4.38;;;;;;;;;;5034540;28;20029;-57
2021/03/04 14:02:13;;;;;;;11.52;4.82;;;;;;;;;;5034680;28;20069;-57
2021/03/04 14:04:42;;;;;;;8.27;4.22;;;;;;;;;;5034529;28;20442;-58
2021/03/04 14:07:08;;;;;;;11.55;6.00;;;;;;;;;;5033969;28;20025;-58
2021/03/04 14:09:40;;;;;;;7.80;5.07;;;;;;;;;;5016739;28;20025;-58
2021/03/04 14:12:06;;;;;;;16.00;4.47;;;;;;;;;;5034920;28;20038;-57
2021/03/04 14:14:33;;;;;;;8.38;4.20;;;;;;;;;;5034476;28;20040;-57
2021/03/04 14:16:59;;;;;;;9.48;4.88;;;;;;;;;;5033442;28;20026;-57
2021/03/04 14:19:25;;;;;;;8.30;5.63;;;;;;;;;;5034733;28;20471;-57
2021/03/04 14:21:51;;;;;;;10.50;4.53;;;;;;;;;;5017254;28;20038;-58
2021/03/04 14:24:20;;;;;;;6.22;3.85;;;;;;;;;;5016434;28;20490;-56
2021/03/04 14:26:46;;;;;;;13.75;4.00;;;;;;;;;;5016590;28;20115;-57
2021/03/04 14:29:15;;;;;;;6.20;3.65;;;;;;;;;;5034104;28;20494;-57
2021/03/04 14:31:41;;;;;;;6.32;2.55;;;;;;;;;;5033838;28;20033;-57
2021/03/04 14:34:08;;;;;;;5.03;2.53;;;;;;;;;;5033816;28;20034;-56
2021/03/04 14:36:34;;;;;;;7.38;2.97;;;;;;;;;;5015908;28;20029;-57
2021/03/04 14:39:00;;;;;;;7.95;3.50;;;;;;;;;;5033872;28;20104;-57
2021/03/04 14:41:32;;;;;;;6.47;3.58;;;;;;;;;;5033740;28;20072;-57
2021/03/04 14:44:00;;;;;;;3.85;2.60;;;;;;;;;;5034216;28;20086;-57
2021/03/04 14:46:29;;;;;;;6.32;3.33;;;;;;;;;;5015656;28;20045;-57
2021/03/04 14:48:55;;;;;;;7.45;3.33;;;;;;;;;;5015922;28;20486;-57
2021/03/04 14:51:22;;;;;;;8.57;2.78;;;;;;;;;;5032968;28;20399;-56
2021/03/04 14:53:48;;;;;;;8.43;3.35;;;;;;;;;;5033895;28;20033;-57
2021/03/04 14:56:14;;;;;;;8.52;2.67;;;;;;;;;;5033602;28;20101;-58
2021/03/04 14:58:41;;;;;;;8.15;2.78;;;;;;;;;;5033907;28;20075;-57
2021/03/04 15:01:10;;;;;;;5.97;2.92;;;;;;;;;;5033458;28;20076;-56
2021/03/04 15:03:36;;;;;;;12.70;3.92;;;;;;;;;;5015737;28;20483;-56
2021/03/04 15:06:15;;;;;;;8.30;2.92;;;;;;;;;;5016623;28;20084;-57
2021/03/04 15:08:44;;;;;;;6.97;3.25;;;;;;;;;;5033946;28;20487;-56
2021/03/04 15:11:13;;;;;;;9.07;2.88;;;;;;;;;;5033463;28;20075;-57
2021/03/04 15:13:52;;;;;;;12.25;3.67;;;;;;;;;;5034132;28;20379;-57
2021/03/04 15:16:20;;;;;;;6.38;3.40;;;;;;;;;;5033303;28;20052;-58
2021/03/04 15:18:46;;;;;;;6.65;2.95;;;;;;;;;;5033306;28;20083;-57
2021/03/04 15:21:12;;;;;;;12.90;4.05;;;;;;;;;;5034028;28;20036;-57
2021/03/04 15:23:38;;;;;;;4.53;2.78;;;;;;;;;;5033360;28;20025;-57
2021/03/04 15:26:07;;;;;;;7.07;2.90;;;;;;;;;;5014821;28;20476;-57
2021/03/04 15:28:33;;;;;;;8.65;2.55;;;;;;;;;;5031910;28;20044;-54
2021/03/04 15:30:59;;;;;;;5.22;2.70;;;;;;;;;;5036840;28;20029;-57
2021/03/04 15:33:28;;;;;;;7.93;3.80;;;;;;;;;;5037299;28;20048;-57
2021/03/04 15:35:55;;;;;;;7.63;3.42;;;;;;;;;;5019626;28;20021;-58
2021/03/04 15:38:21;;;;;;;6.22;2.97;;;;;;;;;;5002918;28;20176;-56
2021/03/04 15:40:47;;;;;;;4.78;2.22;;;;;;;;;;5037202;28;20026;-55
2021/03/04 15:43:18;;;;;;;7.93;3.28;;;;;;;;;;5037483;28;20419;-58
2021/03/04 15:45:44;;;;;;;12.20;2.80;;;;;;;;;;5036789;28;20139;-55
2021/03/04 15:48:10;;;;;;;4.55;3.30;;;;;;;;;;5037044;28;20041;-57
2021/03/04 15:50:37;;;;;;;4.72;2.65;;;;;;;;;;5019075;28;20379;-57
2021/03/04 15:53:05;;;;;;;7.20;2.95;;;;;;;;;;5037273;28;20136;-56
2021/03/04 15:55:32;;;;;;;6.53;3.60;;;;;;;;;;5036498;28;20037;-57
2021/03/04 15:57:58;;;;;;;4.65;2.70;;;;;;;;;;5036865;28;20033;-56
2021/03/04 16:00:24;;;;;;;8.55;2.80;;;;;;;;;;5019748;28;20037;-55
2021/03/04 16:02:56;;;;;;;4.38;2.00;;;;;;;;;;5036779;28;20029;-57
2021/03/04 16:05:28;;;;;;;6.05;2.95;;;;;;;;;;5037064;28;20029;-57
2021/03/04 16:07:54;;;;;;;9.00;2.63;;;;;;;;;;5036844;28;20029;-57